Time;durP1;ratioP1;P1;durP2;ratioP2;P2;SDS_P1;SDS_P2;PMS_P1;PMS_P2;Temp;Humidity;BMP_temperature;BMP_pressure;BME280_temperature;BME280_humidity;BME280_pressure;Samples;Min_cycle;Max_cycle;Signal;HPM_P1;HPM_P2
2023/03/02 00:01:33;;;;;;;33.25;15.63;;;-0.70;99.90;;;;;;5025836;28;20021;-86
2023/03/02 00:04:02;;;;;;;27.17;14.40;;;-0.70;99.90;;;;;;5037104;28;20041;-85
2023/03/02 00:06:29;;;;;;;27.40;13.50;;;-0.70;99.90;;;;;;5034080;28;20773;-86
2023/03/02 00:08:59;;;;;;;29.48;14.43;;;-0.70;99.90;;;;;;5019723;28;20489;-87
2023/03/02 00:11:27;;;;;;;26.55;14.63;;;-0.70;99.90;;;;;;5032592;28;20029;-84
2023/03/02 00:13:53;;;;;;;32.33;14.63;;;-0.70;99.90;;;;;;5053989;28;20370;-87
2023/03/02 00:16:19;;;;;;;31.20;15.10;;;-0.60;99.90;;;;;;5034071;28;20044;-85
2023/03/02 00:18:45;;;;;;;28.38;14.07;;;-0.50;99.90;;;;;;5016288;28;20037;-86
2023/03/02 00:21:11;;;;;;;27.13;13.75;;;-0.40;99.90;;;;;;5013971;28;20025;-85
2023/03/02 00:23:37;;;;;;;30.52;14.52;;;-0.40;99.90;;;;;;5015678;28;20045;-87
2023/03/02 00:26:04;;;;;;;29.92;15.40;;;-0.50;99.90;;;;;;5020747;28;20040;-86
2023/03/02 00:28:31;;;;;;;29.00;14.27;;;-0.50;99.90;;;;;;5033273;28;20060;-86
2023/03/02 00:30:57;;;;;;;31.52;14.93;;;-0.50;99.90;;;;;;5028507;28;20485;-86
2023/03/02 00:33:22;;;;;;;32.95;15.23;;;-0.50;99.90;;;;;;5028295;28;20083;-87
2023/03/02 00:35:49;;;;;;;28.98;13.82;;;-0.50;99.90;;;;;;5015603;28;20112;-85
2023/03/02 00:38:15;;;;;;;30.20;15.45;;;-0.50;99.90;;;;;;5022427;28;20037;-85
2023/03/02 00:40:45;;;;;;;25.17;13.88;;;-0.50;99.90;;;;;;5014630;28;20029;-85
2023/03/02 00:43:11;;;;;;;27.42;14.00;;;-0.60;99.90;;;;;;5030383;28;20025;-87
2023/03/02 00:45:37;;;;;;;31.70;14.63;;;-0.60;99.90;;;;;;5015526;28;20033;-87
2023/03/02 00:48:03;;;;;;;26.27;14.73;;;-0.60;99.90;;;;;;5014155;28;20124;-86
2023/03/02 00:50:29;;;;;;;29.27;13.98;;;-0.60;99.90;;;;;;5028274;28;20115;-87
2023/03/02 00:52:55;;;;;;;29.98;14.55;;;-0.60;99.90;;;;;;5025349;28;20025;-87
2023/03/02 00:55:21;;;;;;;26.95;14.20;;;-0.50;99.90;;;;;;5016259;28;20397;-86
2023/03/02 00:57:53;;;;;;;28.25;14.32;;;-0.60;99.90;;;;;;5014861;28;20029;-87
2023/03/02 01:00:23;;;;;;;;;;;-0.50;99.90;;;;;;5020150;28;20034;-86
2023/03/02 01:02:49;;;;;;;31.85;13.40;;;-0.50;99.90;;;;;;5028966;28;20414;-86
2023/03/02 01:05:16;;;;;;;28.70;14.35;;;-0.50;99.90;;;;;;5032237;28;20033;-86
2023/03/02 01:07:42;;;;;;;31.58;13.65;;;-0.50;99.90;;;;;;5032952;28;20065;-87
2023/03/02 01:10:09;;;;;;;29.38;13.82;;;-0.50;99.90;;;;;;5026629;28;20037;-87
2023/03/02 01:12:35;;;;;;;24.17;12.85;;;-0.60;99.90;;;;;;5015697;28;20481;-87
2023/03/02 01:15:02;;;;;;;28.35;13.07;;;-0.60;99.90;;;;;;5025241;28;20108;-87
2023/03/02 01:17:28;;;;;;;27.40;12.02;;;-0.60;99.90;;;;;;5028079;28;20078;-86
2023/03/02 01:19:54;;;;;;;22.45;11.63;;;-0.70;99.90;;;;;;5008966;28;20029;-85
2023/03/02 01:22:20;;;;;;;24.15;12.07;;;-0.70;99.90;;;;;;5014630;28;20032;-85
2023/03/02 01:24:46;;;;;;;24.52;11.55;;;-0.70;99.90;;;;;;5001326;28;20034;-86
2023/03/02 01:27:12;;;;;;;22.52;11.20;;;-0.80;99.90;;;;;;5015775;28;20131;-84
2023/03/02 01:29:38;;;;;;;19.70;11.00;;;-0.80;99.90;;;;;;5035262;28;20152;-84
2023/03/02 01:32:04;;;;;;;20.90;11.07;;;-0.80;99.90;;;;;;5020958;28;20120;-84
2023/03/02 01:34:30;;;;;;;23.35;11.60;;;-0.90;99.90;;;;;;5039120;28;20040;-85
2023/03/02 01:36:56;;;;;;;25.17;12.20;;;-1.00;99.90;;;;;;5028887;28;20033;-85
2023/03/02 01:39:22;;;;;;;25.70;13.43;;;-1.00;99.90;;;;;;5032727;28;20076;-86
2023/03/02 01:41:49;;;;;;;23.90;12.82;;;-1.10;99.90;;;;;;5015957;28;20306;-87
2023/03/02 01:44:34;;;;;;;29.35;14.18;;;-1.20;99.90;;;;;;5015208;28;20032;-86
2023/03/02 01:47:02;;;;;;;28.65;14.50;;;-1.20;99.90;;;;;;5032584;28;20454;-87
2023/03/02 01:49:29;;;;;;;25.58;13.43;;;-1.10;99.90;;;;;;5042752;28;20394;-86
2023/03/02 01:51:57;;;;;;;30.70;13.00;;;-1.10;99.90;;;;;;4995539;28;20028;-86
2023/03/02 01:54:24;;;;;;;29.38;13.50;;;-1.10;99.90;;;;;;5027415;28;20033;-84
2023/03/02 01:56:57;;;;;;;28.75;12.48;;;-1.10;99.90;;;;;;4998228;28;20029;-86
2023/03/02 01:59:24;;;;;;;19.85;10.73;;;-1.10;99.90;;;;;;5025689;28;20057;-87
2023/03/02 02:01:54;;;;;;;22.02;11.07;;;-1.10;99.90;;;;;;5007378;28;20103;-84
2023/03/02 02:04:22;;;;;;;22.08;10.95;;;-1.10;99.90;;;;;;5026763;28;20385;-86
2023/03/02 02:06:58;;;;;;;20.95;11.02;;;-1.10;99.90;;;;;;5019185;28;20032;-85
2023/03/02 02:09:26;;;;;;;22.27;11.48;;;-1.20;99.90;;;;;;5046617;28;20096;-87
2023/03/02 02:11:54;;;;;;;22.33;10.45;;;-1.20;99.90;;;;;;5009265;28;20370;-86
2023/03/02 02:14:20;;;;;;;25.30;11.88;;;-1.20;99.90;;;;;;5013724;28;20067;-86
2023/03/02 02:16:46;;;;;;;29.92;12.65;;;-1.30;99.90;;;;;;5022708;28;20053;-86
2023/03/02 02:19:48;;;;;;;23.58;12.13;;;-1.30;99.90;;;;;;5022128;28;20069;-87
2023/03/02 02:22:21;;;;;;;25.65;12.18;;;-1.40;99.90;;;;;;5028857;28;20025;-87
2023/03/02 02:24:57;;;;;;;23.63;11.80;;;-1.30;99.90;;;;;;5043059;28;20038;-86
2023/03/02 02:27:28;;;;;;;22.67;11.63;;;-1.40;99.90;;;;;;5019075;28;20460;-87
2023/03/02 02:29:57;;;;;;;24.98;12.23;;;-1.50;99.90;;;;;;5033686;28;20081;-85
2023/03/02 02:32:26;;;;;;;23.10;12.02;;;-1.50;99.90;;;;;;5030400;28;20037;-86
2023/03/02 02:35:23;;;;;;;24.13;12.75;;;-1.50;99.90;;;;;;5030429;28;20061;-87
2023/03/02 02:37:54;;;;;;;27.25;13.10;;;-1.60;99.90;;;;;;5042610;28;20052;-85
2023/03/02 02:40:43;;;;;;;22.50;11.02;;;-1.60;99.90;;;;;;5034327;28;20025;-86
2023/03/02 02:43:15;;;;;;;26.38;12.73;;;-1.60;99.90;;;;;;5026614;28;20048;-86
2023/03/02 02:45:41;;;;;;;26.73;12.55;;;-1.60;99.90;;;;;;5019966;28;20220;-86
2023/03/02 02:48:14;;;;;;;27.40;12.27;;;-1.60;99.90;;;;;;5031954;28;20146;-86
2023/03/02 02:50:41;;;;;;;24.55;11.23;;;-1.60;99.90;;;;;;5044392;28;20033;-87
2023/03/02 02:53:20;;;;;;;28.63;13.48;;;-1.60;99.90;;;;;;5032857;28;20535;-87
2023/03/02 02:55:49;;;;;;;31.20;13.73;;;-1.60;99.90;;;;;;5026431;28;20041;-86
2023/03/02 02:58:34;;;;;;;27.17;13.27;;;-1.40;99.90;;;;;;5026483;28;20036;-88
2023/03/02 03:01:01;;;;;;;26.73;13.25;;;-1.40;99.90;;;;;;5050045;28;20024;-86
2023/03/02 03:03:30;;;;;;;23.13;12.40;;;-1.30;99.90;;;;;;5016882;28;20025;-86
2023/03/02 03:06:02;;;;;;;25.33;12.52;;;-1.30;99.90;;;;;;5037349;28;20037;-86
2023/03/02 03:08:40;;;;;;;30.05;14.20;;;-1.30;99.90;;;;;;5029130;28;20017;-86
2023/03/02 03:11:09;;;;;;;29.23;15.00;;;-1.20;99.90;;;;;;5027507;28;20061;-87
2023/03/02 03:13:37;;;;;;;24.23;12.80;;;-1.20;99.90;;;;;;5034467;28;20041;-87
2023/03/02 03:16:07;;;;;;;28.77;13.57;;;-1.10;99.90;;;;;;5038044;28;20031;-86
2023/03/02 03:18:32;;;;;;;26.25;12.32;;;-1.10;99.90;;;;;;5041565;28;20033;-84
2023/03/02 03:20:58;;;;;;;24.52;12.85;;;-1.00;99.90;;;;;;5015142;28;20124;-85
2023/03/02 03:23:24;;;;;;;26.98;12.57;;;-1.00;99.90;;;;;;5017450;28;20291;-85
2023/03/02 03:25:56;;;;;;;24.65;11.82;;;-0.90;99.90;;;;;;5018909;28;20036;-86
2023/03/02 03:28:34;;;;;;;;;;;;;;;;;;;;;
2023/03/02 03:31:36;;;;;;;21.95;11.05;;;-1.00;99.90;;;;;;5047309;28;20519;-86
2023/03/02 03:35:21;;;;;;;21.48;10.93;;;-1.00;99.90;;;;;;5033988;28;20041;-86
2023/03/02 03:38:16;;;;;;;26.58;11.63;;;-1.00;99.90;;;;;;5025571;28;20021;-86
2023/03/02 03:41:46;;;;;;;;;;;;;;;;;;;;;
2023/03/02 03:45:11;;;;;;;23.77;11.07;;;-1.20;99.90;;;;;;4984359;28;20044;-86
2023/03/02 03:48:01;;;;;;;26.55;12.40;;;-1.30;99.90;;;;;;5007635;28;20118;-85
2023/03/02 03:50:28;;;;;;;24.27;12.45;;;-1.40;99.90;;;;;;5027260;28;20037;-86
2023/03/02 03:52:54;;;;;;;23.35;12.07;;;-1.50;99.90;;;;;;5033962;28;20489;-87
2023/03/02 03:55:27;;;;;;;29.70;13.30;;;-1.50;99.90;;;;;;5025875;28;20135;-87
2023/03/02 03:57:54;;;;;;;31.55;14.18;;;-1.50;99.90;;;;;;5036054;28;20029;-86
2023/03/02 04:00:20;;;;;;;27.58;13.40;;;-1.50;99.90;;;;;;5030974;28;20063;-86
2023/03/02 04:02:51;;;;;;;27.00;12.15;;;-1.50;99.90;;;;;;5029205;28;20071;-86
2023/03/02 04:05:19;;;;;;;27.13;12.20;;;-1.60;99.90;;;;;;5017353;28;20032;-86
2023/03/02 04:07:48;;;;;;;26.98;12.75;;;-1.60;99.90;;;;;;5026455;28;20524;-86
2023/03/02 04:10:14;;;;;;;25.40;13.00;;;-1.60;99.90;;;;;;5017027;28;20053;-85
2023/03/02 04:12:42;;;;;;;29.15;14.15;;;-1.50;99.90;;;;;;5026647;28;20072;-85
2023/03/02 04:15:13;;;;;;;29.02;14.05;;;-1.50;99.90;;;;;;5032441;28;20033;-86
2023/03/02 04:17:39;;;;;;;26.02;13.82;;;-1.30;99.90;;;;;;5044475;28;20045;-86
2023/03/02 04:20:09;;;;;;;30.67;14.27;;;-1.40;99.90;;;;;;5035723;28;20480;-87
2023/03/02 04:22:36;;;;;;;25.35;13.38;;;-1.30;99.90;;;;;;5025181;28;20030;-86
2023/03/02 04:25:04;;;;;;;29.98;13.60;;;-1.40;99.90;;;;;;5021029;28;20060;-87
2023/03/02 04:27:30;;;;;;;23.83;12.57;;;-1.30;99.90;;;;;;5018346;28;20570;-85
2023/03/02 04:29:56;;;;;;;29.08;12.85;;;-1.30;99.90;;;;;;5035048;28;20073;-85
2023/03/02 04:32:22;;;;;;;27.65;13.30;;;-1.30;99.90;;;;;;5022470;28;20074;-85
2023/03/02 04:34:53;;;;;;;22.45;12.05;;;-1.30;99.90;;;;;;5015458;28;20079;-85
2023/03/02 04:37:19;;;;;;;24.85;13.20;;;-1.30;99.90;;;;;;5015447;28;20041;-86
2023/03/02 04:39:48;;;;;;;27.50;13.52;;;-1.30;99.90;;;;;;5010186;28;20055;-86
2023/03/02 04:42:14;;;;;;;22.73;11.73;;;-1.20;99.90;;;;;;5016725;28;20084;-85
2023/03/02 05:19:25;;;;;;;21.50;10.43;;;-1.70;99.90;;;;;;4874549;22;20143;-76
2023/03/02 05:21:50;;;;;;;22.50;10.98;;;-1.70;99.90;;;;;;5009280;28;20051;-76
2023/03/02 05:24:16;;;;;;;23.75;12.05;;;-1.70;99.90;;;;;;5009822;28;20056;-76
2023/03/02 05:26:42;;;;;;;25.77;12.45;;;-1.70;99.90;;;;;;5025339;28;20120;-76
2023/03/02 05:29:08;;;;;;;24.42;12.18;;;-1.80;99.90;;;;;;5010234;28;20117;-76
2023/03/02 05:31:37;;;;;;;28.27;12.95;;;-1.80;99.90;;;;;;4994790;28;20374;-76
2023/03/02 05:34:05;;;;;;;27.77;13.40;;;-1.80;99.90;;;;;;5022654;28;20038;-76
2023/03/02 05:36:31;;;;;;;30.02;13.75;;;-1.70;99.90;;;;;;5002324;28;20065;-76
2023/03/02 05:38:57;;;;;;;32.42;15.07;;;-1.70;99.90;;;;;;5019615;28;20372;-76
2023/03/02 05:41:23;;;;;;;32.45;14.63;;;-1.60;99.90;;;;;;4975880;28;20026;-75
2023/03/02 05:43:49;;;;;;;33.05;15.93;;;-1.50;99.90;;;;;;5007566;28;20695;-76
2023/03/02 05:46:16;;;;;;;32.88;14.60;;;-1.40;99.90;;;;;;4972364;28;20033;-76
2023/03/02 05:48:42;;;;;;;30.17;14.85;;;-1.30;99.90;;;;;;5006829;28;20041;-76
2023/03/02 05:51:08;;;;;;;30.35;14.43;;;-1.20;99.90;;;;;;5024853;28;20100;-76
2023/03/02 05:53:34;;;;;;;31.55;14.77;;;-1.10;99.90;;;;;;4992715;28;20155;-75
2023/03/02 05:56:00;;;;;;;31.27;14.93;;;-1.10;99.90;;;;;;5028237;28;20950;-76
2023/03/02 05:58:26;;;;;;;34.63;15.25;;;-1.00;99.90;;;;;;4991561;28;20040;-76
2023/03/02 06:00:52;;;;;;;37.70;14.90;;;-1.00;99.90;;;;;;5022727;28;20057;-75
2023/03/02 06:03:18;;;;;;;27.70;13.40;;;-1.00;99.90;;;;;;5006159;28;20038;-75
2023/03/02 06:05:44;;;;;;;32.65;14.30;;;-0.90;99.90;;;;;;5006044;28;20080;-75
2023/03/02 06:08:10;;;;;;;28.17;14.02;;;-1.00;99.90;;;;;;5024320;28;20116;-75
2023/03/02 06:10:35;;;;;;;27.67;14.57;;;-0.90;99.90;;;;;;5024460;28;20152;-76
2023/03/02 06:13:01;;;;;;;31.65;15.23;;;-0.90;99.90;;;;;;5023385;28;20100;-76
2023/03/02 06:15:28;;;;;;;30.20;15.52;;;-0.90;99.90;;;;;;5009039;28;20127;-75
2023/03/02 06:17:57;;;;;;;26.80;13.82;;;-0.90;99.90;;;;;;5000024;28;20029;-75
2023/03/02 06:20:24;;;;;;;29.20;14.35;;;-0.90;99.90;;;;;;5019557;28;20401;-76
2023/03/02 06:22:50;;;;;;;30.83;15.48;;;-0.90;99.90;;;;;;5002725;28;20056;-76
2023/03/02 06:25:22;;;;;;;34.75;16.02;;;-0.80;99.90;;;;;;5025719;28;20057;-75
2023/03/02 06:27:50;;;;;;;32.28;14.45;;;-0.80;99.90;;;;;;5011734;28;20079;-76
2023/03/02 06:30:18;;;;;;;27.65;13.77;;;-0.80;99.90;;;;;;5019387;28;20449;-75
2023/03/02 06:32:44;;;;;;;26.50;13.55;;;-0.70;99.90;;;;;;5027876;28;20398;-76
2023/03/02 06:35:12;;;;;;;29.50;13.55;;;-0.70;99.90;;;;;;5025908;28;20022;-75
2023/03/02 06:37:38;;;;;;;30.75;15.35;;;-0.70;99.90;;;;;;5017969;28;20045;-76
2023/03/02 06:40:09;;;;;;;31.10;14.38;;;-0.60;99.90;;;;;;5020428;28;20148;-78
2023/03/02 06:42:34;;;;;;;30.85;15.05;;;-0.60;99.90;;;;;;5026544;28;20030;-77
2023/03/02 06:45:00;;;;;;;36.00;15.35;;;-0.50;99.90;;;;;;5026011;28;20033;-77
2023/03/02 06:47:26;;;;;;;31.02;15.80;;;-0.40;99.90;;;;;;5018025;28;20030;-76
2023/03/02 06:49:52;;;;;;;35.30;15.63;;;-0.30;99.90;;;;;;5007285;28;20501;-77
2023/03/02 06:52:18;;;;;;;33.47;15.75;;;-0.20;99.90;;;;;;5008211;28;20102;-77
2023/03/02 06:54:44;;;;;;;35.35;15.55;;;-0.10;99.90;;;;;;5025177;28;20037;-77
2023/03/02 06:57:09;;;;;;;28.92;13.93;;;0.00;99.90;;;;;;5018207;28;20029;-77
2023/03/02 06:59:35;;;;;;;39.30;16.95;;;0.10;99.90;;;;;;5002757;28;20049;-77
2023/03/02 07:02:01;;;;;;;30.13;14.93;;;0.20;99.90;;;;;;5025603;28;20093;-77
2023/03/02 07:04:30;;;;;;;29.70;15.20;;;0.40;99.90;;;;;;5007059;28;20535;-77
2023/03/02 07:06:56;;;;;;;34.72;14.63;;;0.70;99.90;;;;;;5006483;28;20051;-77
2023/03/02 07:09:22;;;;;;;26.58;14.25;;;1.10;99.90;;;;;;5017880;28;20544;-77
2023/03/02 07:11:47;;;;;;;25.90;13.77;;;1.40;99.90;;;;;;5002833;28;20041;-77
2023/03/02 07:14:13;;;;;;;28.08;13.82;;;1.80;99.90;;;;;;5029524;28;20034;-77
2023/03/02 07:16:39;;;;;;;27.30;14.43;;;2.20;99.90;;;;;;5016603;28;20030;-77
2023/03/02 07:19:05;;;;;;;29.33;14.85;;;2.60;99.90;;;;;;5008442;28;20457;-77
2023/03/02 07:21:31;;;;;;;28.45;14.10;;;3.00;99.90;;;;;;5027302;28;21073;-77
2023/03/02 07:23:56;;;;;;;26.42;13.00;;;3.40;99.90;;;;;;5030947;28;20559;-77
2023/03/02 07:26:22;;;;;;;25.85;14.18;;;3.80;99.90;;;;;;5007070;28;20034;-77
2023/03/02 07:28:48;;;;;;;24.85;14.30;;;4.10;99.90;;;;;;5026782;28;20030;-78
2023/03/02 07:31:14;;;;;;;30.88;14.02;;;4.50;99.90;;;;;;5025077;28;20560;-77
2023/03/02 07:33:40;;;;;;;25.17;14.18;;;4.80;99.90;;;;;;5018327;28;20108;-77
2023/03/02 07:36:06;;;;;;;25.95;13.75;;;5.10;99.90;;;;;;5028578;28;20057;-77
2023/03/02 07:38:33;;;;;;;22.50;13.68;;;5.40;99.90;;;;;;5010070;28;20054;-77
2023/03/02 07:40:59;;;;;;;23.13;13.25;;;5.70;99.90;;;;;;5026118;28;20083;-77
2023/03/02 07:43:26;;;;;;;24.45;13.43;;;6.00;99.90;;;;;;5027563;28;20145;-77
2023/03/02 07:45:51;;;;;;;25.75;13.65;;;6.30;99.90;;;;;;5030254;28;20061;-77
2023/03/02 07:48:18;;;;;;;23.55;13.55;;;6.60;99.90;;;;;;5027409;28;20034;-77
2023/03/02 07:50:45;;;;;;;22.73;13.20;;;6.90;99.90;;;;;;5024170;28;20041;-77
2023/03/02 07:53:10;;;;;;;25.58;13.73;;;7.20;99.90;;;;;;4989765;28;20401;-76
2023/03/02 07:55:40;;;;;;;21.40;11.98;;;7.40;99.90;;;;;;5019020;28;20044;-76
2023/03/02 07:58:05;;;;;;;19.30;12.20;;;7.60;98.30;;;;;;5031200;28;20025;-76
2023/03/02 08:00:32;;;;;;;22.67;12.02;;;7.70;97.50;;;;;;5008651;28;20055;-77
2023/03/02 08:02:57;;;;;;;21.73;12.50;;;7.70;97.00;;;;;;5021208;28;20092;-76
2023/03/02 08:05:23;;;;;;;21.55;12.90;;;7.80;97.10;;;;;;4990654;28;20482;-76
2023/03/02 08:07:49;;;;;;;21.75;12.55;;;7.80;96.70;;;;;;5005435;28;20045;-76
2023/03/02 08:10:15;;;;;;;27.20;12.88;;;7.80;96.80;;;;;;5007457;28;20037;-76
2023/03/02 08:12:41;;;;;;;24.52;12.63;;;7.70;96.10;;;;;;5012975;28;20045;-76
2023/03/02 08:15:08;;;;;;;22.58;12.63;;;7.60;95.90;;;;;;5025072;28;20034;-76
2023/03/02 08:17:34;;;;;;;20.00;11.70;;;7.50;96.80;;;;;;5024293;28;20402;-76
2023/03/02 08:19:59;;;;;;;22.90;12.77;;;7.40;96.90;;;;;;4996310;28;20041;-76
2023/03/02 08:22:25;;;;;;;23.23;12.43;;;7.40;97.00;;;;;;4982558;28;20041;-76
2023/03/02 08:24:51;;;;;;;17.67;11.00;;;7.30;96.30;;;;;;5007523;28;20033;-76
2023/03/02 08:27:17;;;;;;;20.48;12.40;;;7.20;96.00;;;;;;5015296;28;20033;-76
2023/03/02 08:29:43;;;;;;;22.20;12.10;;;7.00;96.40;;;;;;4988282;28;20033;-76
2023/03/02 08:32:08;;;;;;;19.73;11.95;;;6.90;96.40;;;;;;4990213;28;20053;-76
2023/03/02 08:34:35;;;;;;;21.73;11.65;;;6.80;97.00;;;;;;5008101;28;20029;-76
2023/03/02 08:37:01;;;;;;;24.08;12.27;;;6.70;97.20;;;;;;5005299;28;20034;-76
2023/03/02 08:39:29;;;;;;;22.02;11.35;;;6.60;96.80;;;;;;5005000;28;20398;-76
2023/03/02 08:41:55;;;;;;;23.17;11.77;;;6.50;96.90;;;;;;5019467;28;20029;-76
2023/03/02 08:44:21;;;;;;;20.88;11.70;;;6.40;96.80;;;;;;5025847;28;20025;-76
2023/03/02 08:46:48;;;;;;;21.38;11.60;;;6.30;97.20;;;;;;5007527;28;20413;-76
2023/03/02 08:49:14;;;;;;;22.55;11.80;;;6.20;97.80;;;;;;5012655;28;20061;-76
2023/03/02 08:51:40;;;;;;;21.52;12.30;;;6.20;97.70;;;;;;5024673;28;20406;-76
2023/03/02 08:54:06;;;;;;;22.35;11.43;;;6.10;98.30;;;;;;5006084;28;20034;-76
2023/03/02 08:56:35;;;;;;;22.30;11.98;;;6.10;98.20;;;;;;5025587;28;20044;-76
2023/03/02 08:59:04;;;;;;;22.02;11.57;;;6.10;98.10;;;;;;5010133;28;20095;-76
2023/03/02 09:01:32;;;;;;;20.90;11.52;;;6.10;98.30;;;;;;5005406;28;20033;-76
2023/03/02 09:03:59;;;;;;;22.80;11.35;;;6.10;97.60;;;;;;5002368;28;20041;-76
2023/03/02 09:06:26;;;;;;;23.48;11.68;;;6.10;98.10;;;;;;5026098;28;20038;-76
2023/03/02 09:08:52;;;;;;;19.88;11.10;;;6.00;98.20;;;;;;5027625;28;20123;-76
2023/03/02 09:11:18;;;;;;;23.48;12.00;;;6.00;98.50;;;;;;5024047;28;20499;-76
2023/03/02 09:13:44;;;;;;;22.60;11.93;;;6.00;98.50;;;;;;5023038;28;20124;-76
2023/03/02 09:16:13;;;;;;;18.73;10.77;;;6.00;98.20;;;;;;5027002;28;20127;-76
2023/03/02 09:18:39;;;;;;;25.48;12.05;;;5.90;98.40;;;;;;5024714;28;20029;-76
2023/03/02 09:21:05;;;;;;;21.50;11.18;;;6.00;98.70;;;;;;5021946;28;20033;-77
2023/03/02 09:23:32;;;;;;;21.23;11.15;;;6.00;99.10;;;;;;5026072;28;20564;-77
2023/03/02 09:25:58;;;;;;;20.20;11.35;;;6.10;99.30;;;;;;5008793;28;20029;-76
2023/03/02 09:28:24;;;;;;;25.63;11.80;;;6.00;99.20;;;;;;4996611;28;20181;-76
2023/03/02 09:30:52;;;;;;;19.45;10.65;;;6.10;98.50;;;;;;5009649;28;20029;-76
2023/03/02 09:33:19;;;;;;;20.50;10.88;;;6.10;98.60;;;;;;5025770;28;20033;-76
2023/03/02 09:35:46;;;;;;;19.00;10.50;;;6.10;99.00;;;;;;5007818;28;20029;-76
2023/03/02 09:38:15;;;;;;;20.52;10.02;;;6.20;99.50;;;;;;5016116;28;20041;-76
2023/03/02 09:40:56;;;;;;;22.50;10.93;;;6.20;99.90;;;;;;5019779;28;20113;-76
2023/03/02 09:43:59;;;;;;;19.00;10.00;;;6.40;98.50;;;;;;5023621;28;20569;-77
2023/03/02 09:46:31;;;;;;;19.77;9.30;;;6.70;98.90;;;;;;5021119;28;20474;-76
2023/03/02 09:49:16;;;;;;;16.23;9.20;;;6.90;98.00;;;;;;5020604;28;20029;-76
2023/03/02 09:51:46;;;;;;;18.17;9.10;;;7.10;98.20;;;;;;5017602;28;20053;-76
2023/03/02 09:54:20;;;;;;;17.50;7.88;;;7.30;97.50;;;;;;5021080;28;20488;-76
2023/03/02 09:56:53;;;;;;;19.63;7.30;;;7.50;97.20;;;;;;5025856;28;20032;-75
2023/03/02 09:59:40;;;;;;;12.82;7.35;;;7.60;97.10;;;;;;5019638;28;20022;-76
2023/03/02 10:02:36;;;;;;;15.73;6.90;;;7.70;97.40;;;;;;5025121;28;20022;-76
2023/03/02 10:05:07;;;;;;;15.25;7.43;;;7.80;96.60;;;;;;5005773;28;20080;-77
2023/03/02 10:07:37;;;;;;;16.33;7.68;;;7.90;96.10;;;;;;5020835;28;20018;-78
2023/03/02 10:10:32;;;;;;;16.08;8.10;;;8.00;96.60;;;;;;5021128;28;20037;-77
2023/03/02 10:13:25;;;;;;;16.98;6.75;;;8.00;96.30;;;;;;4996275;28;20425;-78
2023/03/02 10:15:57;;;;;;;13.13;6.35;;;8.10;96.00;;;;;;4998640;28;20092;-78
2023/03/02 10:18:29;;;;;;;17.05;6.88;;;8.20;96.30;;;;;;5018222;28;20108;-78
2023/03/02 10:21:08;;;;;;;15.57;6.45;;;8.30;97.10;;;;;;5015693;28;20034;-78
2023/03/02 10:23:43;;;;;;;14.75;5.60;;;8.50;96.90;;;;;;5002042;28;20167;-79
2023/03/02 10:26:14;;;;;;;13.90;5.80;;;8.60;94.90;;;;;;5009786;28;20029;-79
2023/03/02 10:28:48;;;;;;;14.57;5.70;;;8.70;94.70;;;;;;5014846;28;20045;-78
2023/03/02 10:31:26;;;;;;;17.15;6.72;;;8.70;94.90;;;;;;4984132;28;20042;-78
2023/03/02 10:33:53;;;;;;;14.25;6.10;;;8.80;94.70;;;;;;5016681;28;20014;-78
2023/03/02 10:36:28;;;;;;;18.67;7.40;;;8.80;94.40;;;;;;5021801;28;20167;-78
2023/03/02 10:38:56;;;;;;;20.00;9.48;;;8.80;94.80;;;;;;4989982;28;20034;-78
2023/03/02 10:41:35;;;;;;;16.27;7.40;;;8.90;93.90;;;;;;5020329;28;20457;-78
2023/03/02 10:44:13;;;;;;;15.30;6.25;;;9.00;95.40;;;;;;5002657;28;20033;-78
2023/03/02 10:46:45;;;;;;;13.63;5.95;;;9.00;94.90;;;;;;5024885;28;20033;-77
2023/03/02 10:49:35;;;;;;;12.60;5.75;;;9.10;93.60;;;;;;5006385;28;20029;-76
2023/03/02 10:52:14;;;;;;;15.18;6.30;;;9.10;93.30;;;;;;5005203;28;20036;-76
2023/03/02 10:54:40;;;;;;;20.20;7.97;;;9.10;93.60;;;;;;5023457;28;20029;-77
2023/03/02 10:57:28;;;;;;;17.58;8.13;;;9.10;93.30;;;;;;5024436;28;20103;-77
2023/03/02 11:00:00;;;;;;;20.73;6.22;;;9.20;92.90;;;;;;5012034;28;20026;-76
2023/03/02 11:02:28;;;;;;;11.90;5.90;;;9.10;93.10;;;;;;5013630;28;20053;-78
2023/03/02 11:04:57;;;;;;;13.10;6.18;;;9.20;92.90;;;;;;4987891;28;20058;-76
2023/03/02 11:07:26;;;;;;;15.88;6.93;;;9.20;93.10;;;;;;5004196;28;20030;-77
2023/03/02 11:10:18;;;;;;;17.90;6.85;;;9.20;92.90;;;;;;5021636;28;20041;-77
2023/03/02 11:12:46;;;;;;;17.90;5.88;;;9.20;92.50;;;;;;5001541;28;20054;-77
2023/03/02 11:15:18;;;;;;;16.45;5.47;;;9.20;92.20;;;;;;5022433;28;20119;-78
2023/03/02 11:17:47;;;;;;;13.23;6.80;;;9.30;92.70;;;;;;5005527;28;20018;-76
2023/03/02 11:20:19;;;;;;;17.15;7.15;;;9.30;92.40;;;;;;5009160;28;20033;-77
2023/03/02 11:22:59;;;;;;;17.50;6.63;;;9.30;92.40;;;;;;5028711;28;20022;-77
2023/03/02 11:25:32;;;;;;;21.38;6.80;;;9.30;91.70;;;;;;5006330;28;21341;-76
2023/03/02 11:28:30;;;;;;;13.05;6.40;;;9.30;92.10;;;;;;5024265;28;20636;-76
2023/03/02 11:30:59;;;;;;;14.63;6.25;;;9.30;91.90;;;;;;5021561;28;20497;-76
2023/03/02 11:33:52;;;;;;;12.30;6.45;;;9.40;92.00;;;;;;5021029;28;20030;-76
2023/03/02 11:36:29;;;;;;;16.63;6.82;;;9.40;92.30;;;;;;5019188;28;20037;-75
2023/03/02 11:38:55;;;;;;;22.60;7.13;;;9.50;91.90;;;;;;5023116;28;20021;-78
2023/03/02 11:41:29;;;;;;;21.08;7.40;;;9.50;91.80;;;;;;5002926;28;20404;-78
2023/03/02 11:44:06;;;;;;;15.82;6.43;;;9.60;92.10;;;;;;5027137;28;20029;-75
2023/03/02 11:46:32;;;;;;;17.50;6.35;;;9.60;91.10;;;;;;5023683;28;20486;-75
2023/03/02 11:49:03;;;;;;;15.20;6.50;;;9.60;91.70;;;;;;4994513;28;20390;-76
2023/03/02 11:51:35;;;;;;;18.65;6.95;;;9.60;91.20;;;;;;4998468;28;20030;-77
2023/03/02 11:54:27;;;;;;;16.08;6.47;;;9.70;91.50;;;;;;4992717;28;20042;-77
2023/03/02 11:56:54;;;;;;;14.55;6.78;;;9.70;91.10;;;;;;4999783;28;20041;-78
2023/03/02 11:59:21;;;;;;;16.33;6.13;;;9.70;91.20;;;;;;5020643;28;20029;-76
2023/03/02 12:01:51;;;;;;;18.75;6.78;;;9.70;91.00;;;;;;5003227;28;20494;-77
2023/03/02 12:04:43;;;;;;;19.42;6.43;;;9.80;90.70;;;;;;5008400;28;20025;-76
2023/03/02 12:07:18;;;;;;;15.02;6.45;;;9.70;90.30;;;;;;5001604;28;20092;-78
2023/03/02 12:10:01;;;;;;;13.90;6.75;;;9.80;90.00;;;;;;5020024;28;20507;-78
2023/03/02 12:12:33;;;;;;;16.15;7.00;;;9.80;90.80;;;;;;5001859;28;20037;-78
2023/03/02 12:14:59;;;;;;;16.02;6.82;;;9.80;90.20;;;;;;5017193;28;20061;-77
2023/03/02 12:17:25;;;;;;;12.95;6.63;;;9.80;91.10;;;;;;5017909;28;20022;-76
2023/03/02 12:20:06;;;;;;;17.38;6.43;;;9.90;90.70;;;;;;5018745;28;20540;-76
2023/03/02 12:22:33;;;;;;;16.30;6.82;;;9.90;90.80;;;;;;5004746;28;20033;-77
2023/03/02 12:25:17;;;;;;;16.27;6.75;;;10.00;90.10;;;;;;5008566;28;20508;-77
2023/03/02 12:27:43;;;;;;;17.15;7.38;;;10.00;90.20;;;;;;5017918;28;20048;-79
2023/03/02 12:30:15;;;;;;;14.95;7.70;;;10.00;90.00;;;;;;5006139;28;20060;-77
2023/03/02 12:32:46;;;;;;;14.90;7.15;;;10.10;90.00;;;;;;5020763;28;20056;-76
2023/03/02 12:35:16;;;;;;;16.13;7.55;;;10.10;90.70;;;;;;5018748;28;20038;-76
2023/03/02 12:37:55;;;;;;;14.25;7.38;;;10.20;90.80;;;;;;5020320;28;20101;-76
2023/03/02 12:40:50;;;;;;;19.80;7.45;;;10.20;90.60;;;;;;5016221;28;20017;-75
2023/03/02 12:43:41;;;;;;;19.30;7.83;;;10.30;90.00;;;;;;4987633;28;20067;-75
2023/03/02 12:46:32;;;;;;;14.60;7.03;;;10.40;88.10;;;;;;5025775;28;20087;-75
2023/03/02 12:49:42;;;;;;;18.90;7.15;;;10.50;90.30;;;;;;4999667;28;20040;-75
2023/03/02 12:52:31;;;;;;;19.00;8.52;;;10.60;87.80;;;;;;4939678;28;20556;-75
2023/03/02 12:55:16;;;;;;;17.08;7.10;;;10.70;88.60;;;;;;5001023;28;20061;-74
2023/03/02 12:57:56;;;;;;;19.47;7.33;;;10.70;86.40;;;;;;5010114;28;20241;-75
2023/03/02 13:00:29;;;;;;;15.23;7.22;;;10.70;87.10;;;;;;5022131;28;20405;-75
2023/03/02 13:02:56;;;;;;;14.23;7.10;;;10.60;87.70;;;;;;5024746;28;20069;-75
2023/03/02 13:05:33;;;;;;;19.50;8.10;;;10.50;89.40;;;;;;5025272;28;20565;-75
2023/03/02 13:08:03;;;;;;;18.60;8.90;;;10.60;87.70;;;;;;5002857;28;20034;-74
2023/03/02 13:10:39;;;;;;;17.70;9.00;;;10.60;85.40;;;;;;4990151;28;20030;-75
2023/03/02 13:13:16;;;;;;;15.88;8.32;;;10.50;88.70;;;;;;5023518;28;20036;-75
2023/03/02 13:15:56;;;;;;;20.70;8.90;;;10.50;86.70;;;;;;5011048;28;20049;-75
2023/03/02 13:18:30;;;;;;;14.50;7.28;;;10.50;88.50;;;;;;5027867;28;20025;-75
2023/03/02 13:20:58;;;;;;;18.17;8.38;;;10.50;89.60;;;;;;5009934;28;20033;-75
2023/03/02 13:23:26;;;;;;;20.67;7.68;;;10.50;86.10;;;;;;5015880;28;20037;-75
2023/03/02 13:25:57;;;;;;;16.83;7.15;;;10.50;87.50;;;;;;5024760;28;20064;-76
2023/03/02 13:28:35;;;;;;;17.65;7.63;;;10.60;85.00;;;;;;5010792;28;20025;-74
2023/03/02 13:31:25;;;;;;;14.60;7.88;;;10.50;85.20;;;;;;4979177;28;20029;-74